Time;durP1;ratioP1;P1;durP2;ratioP2;P2;SDS_P1;SDS_P2;PMS_P1;PMS_P2;Temp;Humidity;BMP_temperature;BMP_pressure;BME280_temperature;BME280_humidity;BME280_pressure;Samples;Min_cycle;Max_cycle;Signal;HPM_P1;HPM_P2
2022/02/14 00:00:58;;;;;;;64.72;33.05;;;;;;;-5.15;100.00;99205.66;2081593;28;20295;-69
2022/02/14 00:02:01;;;;;;;51.92;29.67;;;;;;;-5.16;100.00;99210.06;2081987;28;20310;-69
2022/02/14 00:03:06;;;;;;;52.20;29.50;;;;;;;-5.16;100.00;99204.88;2081671;28;20616;-68
2022/02/14 00:04:09;;;;;;;54.67;30.75;;;;;;;-5.17;100.00;99203.25;2082061;28;20210;-68
2022/02/14 00:05:14;;;;;;;58.63;30.75;;;;;;;-5.18;100.00;99201.66;2081688;28;20211;-69
2022/02/14 00:06:18;;;;;;;57.05;30.58;;;;;;;-5.17;100.00;99202.47;2081869;28;20223;-69
2022/02/14 00:07:22;;;;;;;55.20;30.23;;;;;;;-5.20;100.00;99197.66;2082537;28;20202;-69
2022/02/14 00:08:24;;;;;;;61.53;30.13;;;;;;;-5.19;100.00;99202.66;2081503;28;20204;-69
2022/02/14 00:09:27;;;;;;;65.70;32.58;;;;;;;-5.19;100.00;99194.06;2081837;28;20184;-69
2022/02/14 00:10:30;;;;;;;66.22;33.15;;;;;;;-5.18;100.00;99199.06;2081540;28;20203;-69
2022/02/14 00:11:33;;;;;;;56.05;31.02;;;;;;;-5.16;100.00;99199.66;2081480;28;20200;-69
2022/02/14 00:12:39;;;;;;;61.45;32.15;;;;;;;-5.15;100.00;99193.47;2081628;28;20774;-69
2022/02/14 00:13:44;;;;;;;60.08;32.63;;;;;;;-5.09;100.00;99201.50;2081845;28;20207;-69
2022/02/14 00:14:46;;;;;;;65.15;33.25;;;;;;;-5.09;100.00;99189.31;2073700;28;20201;-69
2022/02/14 00:15:52;;;;;;;52.70;31.67;;;;;;;-5.03;100.00;99188.56;2081640;28;20195;-68
2022/02/14 00:16:55;;;;;;;53.03;31.50;;;;;;;-5.01;100.00;99196.16;2081569;28;20239;-69
2022/02/14 00:18:00;;;;;;;54.83;31.33;;;;;;;-4.99;100.00;99191.56;2081735;28;20215;-69
2022/02/14 00:19:03;;;;;;;59.90;31.23;;;;;;;-4.97;100.00;99187.75;2082460;28;20200;-68
2022/02/14 00:20:07;;;;;;;57.78;33.72;;;;;;;-4.94;100.00;99191.78;2081945;28;20705;-68
2022/02/14 00:21:12;;;;;;;60.92;31.40;;;;;;;-4.95;100.00;99190.16;2081373;28;20253;-69
2022/02/14 00:22:14;;;;;;;56.83;30.58;;;;;;;-4.97;100.00;99189.56;2081608;28;20191;-68
2022/02/14 00:23:16;;;;;;;60.85;32.08;;;;;;;-5.00;100.00;99192.56;2082316;28;20192;-69
2022/02/14 00:24:19;;;;;;;58.53;31.67;;;;;;;-5.02;100.00;99186.75;2081552;28;20613;-68
2022/02/14 00:25:23;;;;;;;63.88;31.73;;;;;;;-5.05;100.00;99189.72;2081560;28;20215;-68
2022/02/14 00:26:29;;;;;;;64.72;32.13;;;;;;;-5.07;100.00;99184.72;2089741;28;20209;-68
2022/02/14 00:27:33;;;;;;;71.93;35.40;;;;;;;-4.97;100.00;99192.97;2089288;28;20268;-69
2022/02/14 00:28:38;;;;;;;71.05;35.55;;;;;;;-4.82;100.00;99190.25;2081689;28;20203;-69
2022/02/14 00:29:39;;;;;;;68.10;35.90;;;;;;;-4.66;100.00;99186.50;2081584;28;20199;-68
2022/02/14 00:30:42;;;;;;;67.65;35.33;;;;;;;-4.47;100.00;99183.16;2082215;28;20191;-68
2022/02/14 00:31:47;;;;;;;62.60;33.72;;;;;;;-4.42;100.00;99190.41;2081761;28;20226;-68
2022/02/14 00:32:50;;;;;;;59.28;32.10;;;;;;;-4.45;100.00;99186.38;2081604;28;20195;-69
2022/02/14 00:33:54;;;;;;;55.05;32.72;;;;;;;-4.49;100.00;99181.78;2081541;28;20713;-69
2022/02/14 00:35:02;;;;;;;66.22;32.25;;;;;;;-4.55;100.00;99196.34;2074038;28;20200;-68
2022/02/14 00:36:04;;;;;;;52.08;29.90;;;;;;;-4.62;100.00;99190.31;2081080;28;20188;-68
2022/02/14 00:37:07;;;;;;;59.58;31.65;;;;;;;-4.69;100.00;99182.50;2081507;28;20200;-69
2022/02/14 00:38:12;;;;;;;58.65;31.13;;;;;;;-4.74;100.00;99182.28;2081582;28;20215;-69
2022/02/14 00:39:16;;;;;;;67.57;34.20;;;;;;;-4.76;100.00;99179.06;2082136;28;20211;-69
2022/02/14 00:40:18;;;;;;;64.85;32.60;;;;;;;-4.74;100.00;99184.06;2082065;28;20192;-69
2022/02/14 00:41:22;;;;;;;66.40;35.72;;;;;;;-4.75;100.00;99182.47;2082106;28;20192;-69
2022/02/14 00:42:24;;;;;;;60.97;33.30;;;;;;;-4.74;100.00;99179.66;2082251;28;20257;-69
2022/02/14 00:43:29;;;;;;;77.50;36.67;;;;;;;-4.76;100.00;99179.06;2089580;28;20202;-69
2022/02/14 00:44:32;;;;;;;67.53;35.60;;;;;;;-4.72;100.00;99180.28;2081382;28;20341;-69
2022/02/14 00:45:37;;;;;;;68.10;35.38;;;;;;;-4.71;100.00;99179.28;2081485;28;20242;-68
2022/02/14 00:46:39;;;;;;;62.38;35.22;;;;;;;-4.71;100.00;99171.47;2082083;28;20200;-68
2022/02/14 00:47:42;;;;;;;60.72;34.47;;;;;;;-4.68;100.00;99170.28;2089587;28;20748;-69
2022/02/14 00:48:46;;;;;;;69.63;34.65;;;;;;;-4.71;100.00;99171.47;2089413;28;20665;-68
2022/02/14 00:49:50;;;;;;;70.55;36.30;;;;;;;-4.72;100.00;99163.84;2081679;28;20203;-69
2022/02/14 00:50:53;;;;;;;61.47;33.60;;;;;;;-4.72;100.00;99162.06;2081744;28;20253;-69
2022/02/14 00:51:58;;;;;;;60.25;31.92;;;;;;;-4.75;100.00;99162.44;2081720;28;20741;-69
2022/02/14 00:53:02;;;;;;;61.58;32.78;;;;;;;-4.77;100.00;99169.66;2082127;28;20184;-68
2022/02/14 00:54:08;;;;;;;70.78;35.47;;;;;;;-4.82;100.00;99161.63;2081978;28;20771;-69
2022/02/14 00:55:13;;;;;;;73.03;36.42;;;;;;;-4.82;100.00;99160.81;2081295;28;20200;-69
2022/02/14 00:56:18;;;;;;;68.15;33.38;;;;;;;-4.85;100.00;99159.41;2081502;28;20184;-69
2022/02/14 00:57:20;;;;;;;68.10;34.05;;;;;;;-4.86;100.00;99160.41;2082154;28;20191;-69
2022/02/14 00:58:23;;;;;;;78.07;37.25;;;;;;;-4.88;100.00;99162.38;2081712;28;20298;-69
2022/02/14 00:59:27;;;;;;;73.82;37.95;;;;;;;-4.90;100.00;99161.78;2081631;28;20215;-69
2022/02/14 01:00:31;;;;;;;69.00;34.35;;;;;;;-4.93;100.00;99160.38;2082172;28;20665;-69
2022/02/14 01:01:34;;;;;;;70.88;36.05;;;;;;;-4.92;100.00;99153.38;2082017;28;20613;-69
2022/02/14 01:02:39;;;;;;;70.53;37.22;;;;;;;-4.94;100.00;99150.97;2081254;28;20218;-69
2022/02/14 01:03:41;;;;;;;67.80;35.47;;;;;;;-4.92;100.00;99148.97;2083112;28;20195;-68
2022/02/14 01:04:46;;;;;;;63.17;36.92;;;;;;;-4.87;100.00;99150.97;2083726;28;20190;-69
2022/02/14 01:05:49;;;;;;;64.85;35.63;;;;;;;-4.85;100.00;99146.41;2083712;28;20229;-68
2022/02/14 01:06:55;;;;;;;61.97;34.17;;;;;;;-4.85;100.00;99151.59;2083420;28;20223;-69
2022/02/14 01:08:00;;;;;;;56.25;32.72;;;;;;;-4.88;100.00;99146.78;2083290;28;20214;-69
2022/02/14 01:09:03;;;;;;;72.65;35.58;;;;;;;-4.91;100.00;99147.16;2083108;28;20743;-68
2022/02/14 01:10:07;;;;;;;69.38;35.30;;;;;;;-4.93;100.00;99141.38;2083642;28;20192;-68
2022/02/14 01:11:11;;;;;;;73.95;37.28;;;;;;;-4.94;100.00;99134.56;2083587;28;20278;-69
2022/02/14 01:12:14;;;;;;;63.00;33.05;;;;;;;-4.93;100.00;99142.16;2083705;28;20200;-69
2022/02/14 01:13:19;;;;;;;83.82;37.08;;;;;;;-4.95;100.00;99138.13;2083329;28;20200;-69
2022/02/14 01:14:21;;;;;;;79.05;38.85;;;;;;;-4.97;100.00;99130.53;2083031;28;20191;-69
2022/02/14 01:15:24;;;;;;;66.18;35.30;;;;;;;-4.99;100.00;99132.53;2082988;28;20219;-68
2022/02/14 01:16:27;;;;;;;61.10;34.35;;;;;;;-4.98;100.00;99138.53;2083397;28;20319;-69
2022/02/14 01:17:31;;;;;;;78.78;38.05;;;;;;;-4.99;100.00;99131.72;2075163;28;20646;-69
2022/02/14 01:18:32;;;;;;;86.65;39.88;;;;;;;-4.98;100.00;99130.72;2082952;28;20191;-69
2022/02/14 01:19:36;;;;;;;76.70;38.73;;;;;;;-5.01;100.00;99125.91;2083498;28;20187;-69
2022/02/14 01:20:41;;;;;;;76.57;38.58;;;;;;;-5.01;100.00;99125.91;2083304;28;20477;-69
2022/02/14 01:21:44;;;;;;;76.97;40.17;;;;;;;-5.02;100.00;99132.13;2082754;28;20708;-69
2022/02/14 01:22:49;;;;;;;86.55;41.88;;;;;;;-5.04;100.00;99123.69;2083201;28;20210;-69
2022/02/14 01:23:54;;;;;;;85.50;40.83;;;;;;;-5.03;100.00;99118.31;2083002;28;20698;-68
2022/02/14 01:24:59;;;;;;;66.97;36.08;;;;;;;-5.03;100.00;99120.13;2090971;28;20197;-68
2022/02/14 01:26:01;;;;;;;85.78;39.50;;;;;;;-5.05;100.00;99119.47;2090721;28;20207;-68
2022/02/14 01:27:03;;;;;;;63.60;34.50;;;;;;;-5.05;100.00;99124.69;2083142;28;20204;-68
2022/02/14 01:28:06;;;;;;;77.88;37.50;;;;;;;-5.04;100.00;99118.47;2083088;28;20199;-68
2022/02/14 01:29:10;;;;;;;82.93;40.22;;;;;;;-5.06;100.00;99128.28;2083171;28;20206;-69
2022/02/14 01:30:13;;;;;;;57.35;33.05;;;;;;;-5.08;100.00;99125.09;2083443;28;20268;-69
2022/02/14 01:31:18;;;;;;;72.50;35.20;;;;;;;-5.10;100.00;99117.47;2082808;28;20208;-68
2022/02/14 01:32:22;;;;;;;68.03;36.85;;;;;;;-5.10;100.00;99111.47;2074663;28;20291;-68
2022/02/14 01:33:25;;;;;;;68.45;35.65;;;;;;;-5.10;100.00;99117.47;2082907;28;20187;-68
2022/02/14 01:34:29;;;;;;;62.13;33.60;;;;;;;-5.16;100.00;99105.25;2083470;28;20670;-68
2022/02/14 01:35:32;;;;;;;68.00;34.45;;;;;;;-5.15;100.00;99112.84;2083700;28;20639;-69
2022/02/14 01:36:34;;;;;;;71.38;35.15;;;;;;;-5.17;100.00;99114.84;2083101;28;20226;-68
2022/02/14 01:37:40;;;;;;;63.50;33.25;;;;;;;-5.17;100.00;99108.84;2083523;28;20198;-69
2022/02/14 01:38:46;;;;;;;66.88;34.90;;;;;;;-5.19;100.00;99116.84;2083430;28;20199;-69
2022/02/14 01:39:48;;;;;;;73.25;37.22;;;;;;;-5.21;100.00;99111.03;2082751;28;20221;-68
2022/02/14 01:40:52;;;;;;;75.25;37.88;;;;;;;-5.21;100.00;99113.63;2082908;28;20551;-68
2022/02/14 01:41:57;;;;;;;78.13;38.30;;;;;;;-5.23;100.00;99107.81;2083098;28;20208;-69
2022/02/14 01:43:01;;;;;;;80.47;39.03;;;;;;;-5.25;100.00;99106.41;2083349;28;20226;-69
2022/02/14 01:44:04;;;;;;;84.60;39.17;;;;;;;-5.16;100.00;99113.84;2082633;28;20741;-69
2022/02/14 01:45:10;;;;;;;82.72;41.25;;;;;;;-5.10;100.00;99101.06;2082804;28;20611;-69
2022/02/14 01:46:13;;;;;;;77.15;41.08;;;;;;;-5.04;100.00;99113.28;2083564;28;20195;-69
2022/02/14 01:47:19;;;;;;;85.10;41.15;;;;;;;-5.04;100.00;99111.47;2082711;28;20229;-69
2022/02/14 01:48:21;;;;;;;87.03;41.22;;;;;;;-5.03;100.00;99096.72;2082838;28;20271;-69
2022/02/14 01:49:23;;;;;;;91.03;42.63;;;;;;;-5.04;100.00;99095.06;2083480;28;20294;-69
2022/02/14 01:50:27;;;;;;;84.47;40.45;;;;;;;-5.06;100.00;99097.88;2082651;28;20290;-68
2022/02/14 01:51:29;;;;;;;89.97;41.85;;;;;;;-5.05;100.00;99096.88;2082363;28;20223;-69
2022/02/14 01:52:35;;;;;;;83.53;43.28;;;;;;;-5.04;100.00;99092.47;2082589;28;20591;-68
2022/02/14 01:53:40;;;;;;;91.53;41.08;;;;;;;-4.97;100.00;99093.31;2082610;28;20294;-69
2022/02/14 01:54:49;;;;;;;82.28;41.00;;;;;;;-4.94;100.00;99098.13;2082571;28;20299;-68
2022/02/14 01:55:53;;;;;;;88.97;42.03;;;;;;;-4.93;100.00;99089.34;2082837;28;20172;-69
2022/02/14 01:56:59;;;;;;;87.82;42.78;;;;;;;-4.92;100.00;99096.13;2083535;28;20196;-68
2022/02/14 01:58:04;;;;;;;88.90;42.92;;;;;;;-4.91;100.00;99089.94;2082936;28;20418;-69
2022/02/14 01:59:06;;;;;;;91.82;43.65;;;;;;;-4.85;100.00;99096.97;2082939;28;20203;-68
2022/02/14 02:00:16;;;;;;;98.45;43.90;;;;;;;-4.73;100.00;99100.59;2082520;28;20196;-68
2022/02/14 02:01:19;;;;;;;89.82;43.30;;;;;;;-4.65;100.00;99092.59;2082768;28;20298;-69
2022/02/14 02:02:22;;;;;;;86.93;41.63;;;;;;;-4.60;100.00;99095.44;2083288;28;20234;-68
2022/02/14 02:03:25;;;;;;;91.78;42.65;;;;;;;-4.53;100.00;99094.63;2083267;28;20229;-69
2022/02/14 02:04:30;;;;;;;90.82;41.42;;;;;;;-4.49;100.00;99096.66;2083382;28;20708;-69
2022/02/14 02:05:32;;;;;;;94.40;41.30;;;;;;;-4.49;100.00;99088.03;2082507;28;20218;-68
2022/02/14 02:06:37;;;;;;;83.53;41.72;;;;;;;-4.49;100.00;99088.03;2082241;28;20326;-68
2022/02/14 02:07:39;;;;;;;85.97;42.83;;;;;;;-4.52;100.00;99089.22;2083512;28;20179;-69
2022/02/14 02:08:41;;;;;;;87.20;41.65;;;;;;;-4.53;100.00;99086.81;2083298;28;20275;-69
2022/02/14 02:09:46;;;;;;;89.05;42.60;;;;;;;-4.55;100.00;99081.81;2082447;28;20628;-68
2022/02/14 02:10:49;;;;;;;88.40;42.33;;;;;;;-4.58;100.00;99080.41;2082637;28;20665;-68
2022/02/14 02:13:17;;;;;;;88.45;42.15;;;;;;;-4.64;100.00;99073.38;2082334;28;20265;-68
2022/02/14 02:14:23;;;;;;;83.10;41.28;;;;;;;-4.60;100.00;99074.63;2081998;28;20176;-69
2022/02/14 02:15:25;;;;;;;83.70;40.67;;;;;;;-4.66;100.00;99070.19;2083023;28;20188;-68
2022/02/14 02:16:26;;;;;;;84.68;41.20;;;;;;;-4.56;100.00;99075.81;2082484;28;20195;-69
2022/02/14 02:17:31;;;;;;;89.65;41.72;;;;;;;-4.46;100.00;99072.81;2082626;28;20194;-68
2022/02/14 02:18:36;;;;;;;84.05;42.58;;;;;;;-4.43;100.00;99075.03;2083068;28;20195;-69
2022/02/14 02:19:39;;;;;;;86.60;43.25;;;;;;;-4.36;100.00;99075.81;2082819;28;20202;-68
2022/02/14 02:20:41;;;;;;;87.65;41.47;;;;;;;-4.34;100.00;99073.06;2083402;28;20176;-69
2022/02/14 02:21:46;;;;;;;82.88;43.40;;;;;;;-4.38;100.00;99074.44;2082169;28;20385;-69
2022/02/14 02:22:50;;;;;;;95.35;44.58;;;;;;;-4.42;100.00;99074.03;2082740;28;20172;-68
2022/02/14 02:23:56;;;;;;;90.05;43.08;;;;;;;-4.42;100.00;99065.44;2083150;28;20188;-68
2022/02/14 02:25:02;;;;;;;84.20;41.38;;;;;;;-4.40;100.00;99064.22;2082481;28;20230;-68
2022/02/14 02:26:03;;;;;;;88.00;42.33;;;;;;;-4.40;100.00;99063.41;2074874;28;20323;-68
2022/02/14 02:27:07;;;;;;;78.63;40.47;;;;;;;-4.42;100.00;99066.22;2074575;28;20214;-69
2022/02/14 02:28:11;;;;;;;81.28;42.10;;;;;;;-4.34;100.00;99062.63;2074677;28;20709;-68
2022/02/14 02:29:14;;;;;;;86.45;41.65;;;;;;;-4.35;100.00;99061.81;2075182;28;20200;-68
2022/02/14 02:30:18;;;;;;;86.20;42.92;;;;;;;-4.36;100.00;99064.59;2074216;28;20223;-69
2022/02/14 02:31:20;;;;;;;80.43;41.58;;;;;;;-4.30;100.00;99058.63;2082403;28;20203;-69
2022/02/14 02:32:24;;;;;;;85.75;40.53;;;;;;;-4.22;100.00;99055.81;2082521;28;20218;-69
2022/02/14 02:33:30;;;;;;;88.47;42.42;;;;;;;-4.21;100.00;99052.19;2082551;28;20208;-67
2022/02/14 02:34:33;;;;;;;83.05;41.22;;;;;;;-4.27;100.00;99059.00;2075249;28;20599;-68
2022/02/14 02:35:36;;;;;;;82.03;42.10;;;;;;;-4.28;100.00;99051.41;2082696;28;20184;-69
2022/02/14 02:36:48;;;;;;;89.00;42.13;;;;;;;-4.26;100.00;99057.19;2082820;28;20230;-68
2022/02/14 02:37:50;;;;;;;85.50;42.95;;;;;;;-4.28;100.00;99056.59;2082955;28;20194;-68
2022/02/14 02:38:52;;;;;;;80.93;41.35;;;;;;;-4.33;100.00;99049.41;2083022;28;20282;-67
2022/02/14 02:39:57;;;;;;;79.30;39.40;;;;;;;-4.31;100.00;99057.00;2082970;28;20609;-71
2022/02/14 02:41:03;;;;;;;80.38;40.05;;;;;;;-4.35;100.00;99055.78;2082997;28;20556;-68
2022/02/14 02:42:06;;;;;;;83.65;40.53;;;;;;;-4.40;100.00;99048.59;2082925;28;20196;-68
2022/02/14 02:43:09;;;;;;;81.70;41.13;;;;;;;-4.49;100.00;99043.78;2082244;28;20291;-68
2022/02/14 02:44:10;;;;;;;83.43;39.45;;;;;;;-4.53;100.00;99043.38;2082584;28;20191;-68
2022/02/14 02:45:15;;;;;;;80.90;40.75;;;;;;;-4.58;100.00;99036.16;2082999;28;20219;-69
2022/02/14 02:46:18;;;;;;;80.30;40.08;;;;;;;-4.58;100.00;99037.97;2082884;28;20200;-68
2022/02/14 02:47:24;;;;;;;83.20;41.65;;;;;;;-4.64;100.00;99039.56;2082246;28;20199;-68
2022/02/14 02:48:27;;;;;;;91.45;42.88;;;;;;;-4.57;100.00;99042.97;2082391;28;20286;-68
2022/02/14 02:49:29;;;;;;;89.80;41.33;;;;;;;-4.53;100.00;99047.78;2082897;28;20720;-68
2022/02/14 02:50:31;;;;;;;92.35;42.50;;;;;;;-4.52;100.00;99042.34;2082246;28;20226;-68
2022/02/14 02:51:37;;;;;;;85.65;40.35;;;;;;;-4.52;100.00;99041.56;2081734;28;20218;-68
2022/02/14 02:52:39;;;;;;;86.68;43.25;;;;;;;-4.44;100.00;99044.78;2074923;28;20219;-69
2022/02/14 02:53:40;;;;;;;81.50;40.22;;;;;;;-4.45;100.00;99039.78;2082348;28;20745;-69
2022/02/14 02:54:46;;;;;;;76.47;40.63;;;;;;;-4.44;100.00;99038.75;2082935;28;20526;-69
2022/02/14 02:55:47;;;;;;;77.55;41.20;;;;;;;-4.49;100.00;99035.97;2082381;28;20203;-68
2022/02/14 02:56:52;;;;;;;83.25;41.90;;;;;;;-4.51;100.00;99041.38;2082575;28;20282;-68
2022/02/14 02:57:54;;;;;;;81.82;39.47;;;;;;;-4.57;100.00;99036.97;2090191;28;20172;-68
2022/02/14 02:58:58;;;;;;;78.82;39.78;;;;;;;-4.64;100.00;99033.53;2090390;28;20191;-69
2022/02/14 03:00:00;;;;;;;87.97;41.67;;;;;;;-4.67;100.00;99034.75;2090020;28;20251;-68
2022/02/14 03:01:01;;;;;;;81.07;40.25;;;;;;;-4.73;100.00;99037.34;2082180;28;20199;-69
2022/02/14 03:02:05;;;;;;;78.10;40.08;;;;;;;-4.76;100.00;99032.53;2082371;28;20186;-68
2022/02/14 03:03:08;;;;;;;78.82;41.40;;;;;;;-4.76;100.00;99035.94;2082162;28;20211;-68
2022/02/14 03:04:12;;;;;;;78.53;41.13;;;;;;;-4.78;100.00;99039.72;2074365;28;20681;-68
2022/02/14 03:05:14;;;;;;;79.22;41.78;;;;;;;-4.80;100.00;99032.13;2082261;28;20222;-69
2022/02/14 03:06:18;;;;;;;77.20;42.65;;;;;;;-4.81;100.00;99038.31;2081926;28;20228;-68
2022/02/14 03:07:20;;;;;;;89.90;42.90;;;;;;;-4.79;100.00;99036.31;2082264;28;20230;-69
2022/02/14 03:08:23;;;;;;;84.57;41.10;;;;;;;-4.79;100.00;99033.72;2082782;28;20654;-69
2022/02/14 03:09:28;;;;;;;84.45;41.15;;;;;;;-4.80;100.00;99034.72;2082741;28;20214;-69
2022/02/14 03:10:30;;;;;;;86.53;43.30;;;;;;;-4.80;100.00;99037.31;2082339;28;20311;-68
2022/02/14 03:11:33;;;;;;;89.95;41.92;;;;;;;-4.80;100.00;99039.91;2082236;28;20275;-68
2022/02/14 03:12:40;;;;;;;83.38;42.60;;;;;;;-4.81;100.00;99027.13;2082068;28;20199;-69
2022/02/14 03:13:41;;;;;;;83.18;41.45;;;;;;;-4.72;100.00;99034.53;2074685;28;20575;-69
2022/02/14 03:14:43;;;;;;;83.57;41.30;;;;;;;-4.71;100.00;99036.13;2073845;28;20201;-69
2022/02/14 03:15:46;;;;;;;79.65;41.65;;;;;;;-4.68;100.00;99038.34;2074001;28;20868;-68
2022/02/14 03:16:50;;;;;;;82.43;40.05;;;;;;;-4.70;100.00;99032.53;2082043;28;20658;-68
2022/02/14 03:17:52;;;;;;;87.20;41.47;;;;;;;-4.67;100.00;99036.56;2082316;28;20575;-69
2022/02/14 03:18:55;;;;;;;84.28;41.22;;;;;;;-4.69;100.00;99039.38;2074110;28;20222;-68
2022/02/14 03:20:00;;;;;;;83.07;40.20;;;;;;;-4.59;100.00;99034.56;2081956;28;20223;-68
2022/02/14 03:21:01;;;;;;;86.43;39.67;;;;;;;-4.53;100.00;99032.16;2081691;28;20241;-69
2022/02/14 03:22:03;;;;;;;86.55;39.38;;;;;;;-4.52;100.00;99026.75;2082146;28;20218;-69
2022/02/14 03:23:07;;;;;;;81.20;39.67;;;;;;;-4.44;100.00;99038.75;2082593;28;20187;-68
2022/02/14 03:24:10;;;;;;;85.18;42.20;;;;;;;-4.42;100.00;99034.19;2082609;28;20203;-69
2022/02/14 03:25:13;;;;;;;76.97;38.70;;;;;;;-4.37;100.00;99036.97;2082217;28;20737;-69
2022/02/14 03:26:17;;;;;;;72.65;37.95;;;;;;;-4.30;100.00;99037.78;2081886;28;20696;-69
2022/02/14 03:27:19;;;;;;;86.50;40.53;;;;;;;-4.26;100.00;99038.97;2082235;28;20625;-69
2022/02/14 03:28:24;;;;;;;85.57;40.28;;;;;;;-4.29;100.00;99028.97;2082072;28;20196;-69
2022/02/14 03:29:28;;;;;;;76.00;40.08;;;;;;;-4.23;100.00;99037.78;2081977;28;20196;-69
2022/02/14 03:30:31;;;;;;;76.95;38.75;;;;;;;-4.19;100.00;99033.75;2073752;28;20204;-68
2022/02/14 03:31:36;;;;;;;78.68;38.08;;;;;;;-4.18;100.00;99040.56;2082126;28;20196;-68
2022/02/14 03:32:38;;;;;;;77.82;37.35;;;;;;;-4.17;100.00;99043.00;2081782;28;20566;-69
2022/02/14 03:33:41;;;;;;;69.47;37.58;;;;;;;-4.11;100.00;99041.38;2082122;28;20302;-69
2022/02/14 03:34:43;;;;;;;73.22;36.55;;;;;;;-4.15;100.00;99037.59;2082608;28;20259;-69
2022/02/14 03:35:45;;;;;;;72.93;36.78;;;;;;;-4.11;100.00;99043.97;2082495;28;20191;-70
2022/02/14 03:36:49;;;;;;;74.53;37.58;;;;;;;-4.12;100.00;99043.19;2082276;28;20721;-68
2022/02/14 03:37:52;;;;;;;74.90;39.53;;;;;;;-4.13;100.00;99041.59;2081817;28;20192;-69
2022/02/14 03:39:00;;;;;;;70.13;36.38;;;;;;;-4.14;100.00;99039.97;2074295;28;20212;-69
2022/02/14 03:40:01;;;;;;;73.57;35.80;;;;;;;-4.17;100.00;99037.78;2082036;28;20183;-69
2022/02/14 03:41:04;;;;;;;66.35;35.67;;;;;;;-4.11;100.00;99043.97;2082564;28;20188;-69
2022/02/14 03:42:08;;;;;;;77.07;37.67;;;;;;;-4.14;100.00;99039.97;2082103;28;20211;-68
2022/02/14 03:43:10;;;;;;;68.88;36.22;;;;;;;-4.17;100.00;99045.59;2081920;28;20195;-69
2022/02/14 03:44:17;;;;;;;72.53;36.13;;;;;;;-4.17;100.00;99032.59;2082665;28;20215;-70
2022/02/14 03:45:21;;;;;;;69.95;36.20;;;;;;;-4.15;100.00;99034.97;2082076;28;20199;-68
2022/02/14 03:46:26;;;;;;;75.38;37.17;;;;;;;-4.13;100.00;99040.78;2081811;28;20192;-69
2022/02/14 03:47:27;;;;;;;69.13;36.03;;;;;;;-4.17;100.00;99032.59;2082359;28;20223;-69
2022/02/14 03:48:31;;;;;;;64.68;35.17;;;;;;;-4.15;100.00;99040.19;2082607;28;20215;-69
2022/02/14 03:49:33;;;;;;;72.85;37.97;;;;;;;-4.15;100.00;99034.97;2082379;28;20199;-69
2022/02/14 03:50:35;;;;;;;71.28;36.65;;;;;;;-4.16;100.00;99043.81;2090045;28;20239;-69
2022/02/14 03:51:39;;;;;;;66.47;36.38;;;;;;;-4.16;100.00;99038.59;2089640;28;20704;-68
2022/02/14 03:52:42;;;;;;;71.38;35.97;;;;;;;-4.13;100.00;99040.78;2081714;28;20203;-69
2022/02/14 03:53:47;;;;;;;71.72;36.78;;;;;;;-4.15;100.00;99033.19;2081799;28;20219;-69
2022/02/14 03:54:48;;;;;;;70.95;38.05;;;;;;;-4.19;100.00;99029.34;2082366;28;20199;-69
2022/02/14 03:55:50;;;;;;;71.72;36.80;;;;;;;-4.23;100.00;99033.38;2081980;28;20209;-68
2022/02/14 03:56:52;;;;;;;66.75;35.70;;;;;;;-4.28;100.00;99031.34;2081822;28;20188;-69
2022/02/14 03:57:54;;;;;;;69.95;36.15;;;;;;;-4.30;100.00;99030.75;2082314;28;20302;-68
2022/02/14 03:58:56;;;;;;;78.63;37.60;;;;;;;-4.35;100.00;99024.53;2081669;28;20697;-69
2022/02/14 04:00:01;;;;;;;77.90;37.72;;;;;;;-4.37;100.00;99026.56;2081782;28;20693;-69
2022/02/14 04:01:14;;;;;;;70.25;36.55;;;;;;;-4.33;100.00;99027.78;2082435;28;20263;-69
2022/02/14 04:02:21;;;;;;;63.42;34.28;;;;;;;-4.30;100.00;99029.97;2082309;28;20194;-69
2022/02/14 04:03:26;;;;;;;72.65;36.75;;;;;;;-4.27;100.00;99019.13;2082072;28;20211;-68
2022/02/14 04:04:28;;;;;;;69.25;34.80;;;;;;;-4.14;100.00;99026.97;2081783;28;20193;-70
2022/02/14 04:05:29;;;;;;;61.22;34.28;;;;;;;-4.11;100.00;99036.16;2081590;28;20204;-68
2022/02/14 04:06:32;;;;;;;66.75;35.90;;;;;;;-4.08;100.00;99030.56;2081200;28;20313;-69
2022/02/14 04:07:36;;;;;;;64.40;33.75;;;;;;;-4.09;100.00;99036.75;2081900;28;20208;-69
2022/02/14 04:08:39;;;;;;;69.82;33.97;;;;;;;-4.06;100.00;99034.56;2081761;28;20650;-69
2022/02/14 04:09:41;;;;;;;61.25;34.72;;;;;;;-4.04;100.00;99032.56;2081616;28;20620;-69
2022/02/14 04:10:46;;;;;;;64.72;34.55;;;;;;;-4.02;100.00;99030.53;2073499;28;20270;-68
2022/02/14 04:11:48;;;;;;;62.50;34.22;;;;;;;-4.03;100.00;99034.16;2081825;28;20548;-68
2022/02/14 04:12:52;;;;;;;60.78;33.40;;;;;;;-4.10;100.00;99033.34;2081621;28;20238;-68
2022/02/14 04:13:57;;;;;;;62.67;33.40;;;;;;;-4.12;100.00;99024.16;2081968;28;20199;-69
2022/02/14 04:15:01;;;;;;;61.42;33.55;;;;;;;-4.13;100.00;99028.56;2081943;28;20299;-69
2022/02/14 04:16:03;;;;;;;63.20;34.35;;;;;;;-4.14;100.00;99034.78;2073997;28;20196;-68
2022/02/14 04:17:04;;;;;;;60.60;32.58;;;;;;;-4.11;100.00;99026.53;2081674;28;20191;-68
2022/02/14 04:18:09;;;;;;;63.03;34.00;;;;;;;-4.10;100.00;99022.13;2081708;28;20192;-68
2022/02/14 04:19:10;;;;;;;63.45;33.92;;;;;;;-4.10;100.00;99022.13;2081512;28;20815;-68
2022/02/14 04:20:15;;;;;;;64.13;34.35;;;;;;;-4.12;100.00;99024.94;2081498;28;20258;-69
2022/02/14 04:21:19;;;;;;;61.70;34.47;;;;;;;-4.16;100.00;99018.56;2081685;28;20219;-69
2022/02/14 04:22:23;;;;;;;71.30;37.83;;;;;;;-4.19;100.00;99026.75;2082164;28;20256;-68
2022/02/14 04:23:26;;;;;;;67.35;36.63;;;;;;;-4.23;100.00;99028.16;2081573;28;20204;-68
2022/02/14 04:24:27;;;;;;;61.80;34.25;;;;;;;-4.27;100.00;99021.75;2081673;28;20282;-68
2022/02/14 04:25:31;;;;;;;62.13;34.83;;;;;;;-4.32;100.00;99029.38;2082257;28;20187;-69
2022/02/14 04:26:33;;;;;;;61.88;34.28;;;;;;;-4.37;100.00;99023.94;2081847;28;20654;-69
2022/02/14 04:27:38;;;;;;;70.93;35.53;;;;;;;-4.42;100.00;99023.75;2073844;28;20200;-68
2022/02/14 04:28:41;;;;;;;58.38;33.13;;;;;;;-4.43;100.00;99028.19;2081850;28;20179;-69
2022/02/14 04:29:46;;;;;;;55.95;33.45;;;;;;;-4.46;100.00;99017.34;2081433;28;20231;-69
2022/02/14 04:30:53;;;;;;;60.17;33.33;;;;;;;-4.42;100.00;99018.56;2073707;28;20204;-69
2022/02/14 04:31:54;;;;;;;64.07;32.78;;;;;;;-4.39;100.00;99023.34;2081566;28;20669;-68
2022/02/14 04:33:00;;;;;;;59.55;32.05;;;;;;;-4.35;100.00;99029.75;2081784;28;20249;-69
2022/02/14 04:34:02;;;;;;;58.15;33.47;;;;;;;-4.35;100.00;99027.94;2082162;28;20219;-69
2022/02/14 04:35:05;;;;;;;62.58;32.47;;;;;;;-4.35;100.00;99024.53;2081803;28;20723;-69
2022/02/14 04:36:07;;;;;;;57.20;32.83;;;;;;;-4.32;100.00;99019.75;2081072;28;20658;-69
2022/02/14 04:37:08;;;;;;;53.75;32.20;;;;;;;-4.28;100.00;99025.34;2081303;28;20199;-69
2022/02/14 04:38:11;;;;;;;55.97;32.90;;;;;;;-4.25;100.00;99019.75;2072893;28;20287;-69
2022/02/14 04:39:13;;;;;;;56.53;33.05;;;;;;;-4.22;100.00;99023.75;2081391;28;20277;-68
2022/02/14 04:40:15;;;;;;;64.75;32.78;;;;;;;-4.21;100.00;99020.94;2081479;28;20576;-69
2022/02/14 04:41:19;;;;;;;58.85;31.80;;;;;;;-4.23;100.00;99016.94;2081442;28;20226;-69
2022/02/14 04:42:22;;;;;;;61.35;33.95;;;;;;;-4.29;100.00;99013.34;2081334;28;20238;-69
2022/02/14 04:43:25;;;;;;;66.70;35.13;;;;;;;-4.31;100.00;99016.16;2073937;28;20259;-69
2022/02/14 04:44:27;;;;;;;66.18;34.92;;;;;;;-4.35;100.00;99008.91;2081672;28;20684;-68
2022/02/14 04:45:31;;;;;;;61.95;34.03;;;;;;;-4.35;100.00;99016.72;2081747;28;20194;-69
2022/02/14 04:46:35;;;;;;;57.90;33.55;;;;;;;-4.37;100.00;99011.72;2081611;28;20253;-69
2022/02/14 04:47:37;;;;;;;67.93;32.08;;;;;;;-4.41;100.00;99010.53;2081553;28;20619;-69
2022/02/14 04:48:39;;;;;;;69.95;36.20;;;;;;;-4.42;100.00;99008.16;2081847;28;20223;-68
2022/02/14 04:49:41;;;;;;;62.58;33.90;;;;;;;-4.48;100.00;99008.94;2081477;28;20562;-69
2022/02/14 04:50:42;;;;;;;70.32;37.53;;;;;;;-4.51;100.00;99006.75;2081432;28;20202;-70